Time;durP1;ratioP1;P1;durP2;ratioP2;P2;SDS_P1;SDS_P2;PMS_P1;PMS_P2;Temp;Humidity;BMP_temperature;BMP_pressure;BME280_temperature;BME280_humidity;BME280_pressure;Samples;Min_cycle;Max_cycle;Signal;HPM_P1;HPM_P2
2021/07/15 00:00:38;;;;;;;17.12;5.80;;;;;;;18.96;67.65;100793.66;1805082;78;21498;-62
2021/07/15 00:03:10;;;;;;;16.32;5.33;;;;;;;18.89;67.86;100792.78;1804742;79;21104;-62
2021/07/15 00:05:40;;;;;;;19.80;6.00;;;;;;;18.87;67.74;100786.70;1804887;79;21132;-63
2021/07/15 00:08:10;;;;;;;15.72;6.42;;;;;;;18.83;67.91;100789.23;1804938;79;21083;-62
2021/07/15 00:10:42;;;;;;;16.75;6.90;;;;;;;18.81;67.97;100797.84;1804897;79;21573;-62
2021/07/15 00:13:11;;;;;;;18.30;6.83;;;;;;;18.78;68.55;100790.02;1804113;79;21080;-62
2021/07/15 00:15:43;;;;;;;10.55;5.75;;;;;;;18.74;68.53;100801.88;1804917;79;21665;-62
2021/07/15 00:18:13;;;;;;;14.13;7.17;;;;;;;18.73;68.49;100797.48;1804978;79;21522;-62
2021/07/15 00:20:44;;;;;;;44.63;23.10;;;;;;;18.74;68.25;100793.88;1804890;79;21213;-62
2021/07/15 00:23:14;;;;;;;33.65;16.10;;;;;;;18.73;68.29;100794.83;1804986;79;21056;-62
2021/07/15 00:25:45;;;;;;;22.02;10.82;;;;;;;18.70;68.16;100792.38;1804859;79;21055;-63
2021/07/15 00:28:15;;;;;;;20.80;10.82;;;;;;;18.67;68.16;100797.95;1805025;79;21060;-62
2021/07/15 00:30:44;;;;;;;16.87;9.00;;;;;;;18.63;68.37;100796.47;1805052;79;21084;-62
2021/07/15 00:33:13;;;;;;;18.40;10.55;;;;;;;18.57;68.33;100799.55;1804937;79;21059;-62
2021/07/15 00:35:42;;;;;;;19.95;9.75;;;;;;;18.51;68.46;100789.69;1804907;78;21539;-62
2021/07/15 00:38:11;;;;;;;15.65;9.20;;;;;;;18.47;68.50;100787.38;1804857;79;21087;-62
2021/07/15 00:40:40;;;;;;;18.20;8.73;;;;;;;18.42;68.81;100783.69;1804848;79;21632;-62
2021/07/15 00:43:09;;;;;;;18.15;7.20;;;;;;;18.38;69.22;100786.70;1818732;77;21100;-62
2021/07/15 00:45:38;;;;;;;15.38;6.60;;;;;;;18.33;69.46;100790.55;1838944;78;21499;-62
2021/07/15 00:48:07;;;;;;;13.88;6.75;;;;;;;18.31;69.33;100794.27;1838852;78;21096;-62
2021/07/15 00:50:37;;;;;;;13.22;6.67;;;;;;;18.27;69.78;100796.78;1838945;78;21104;-62
2021/07/15 00:53:07;;;;;;;14.85;5.75;;;;;;;18.20;69.98;100796.34;1838746;78;21148;-62
2021/07/15 00:55:44;;;;;;;14.50;6.33;;;;;;;18.16;69.74;100798.02;1838921;78;21103;-62
2021/07/15 00:58:15;;;;;;;16.23;6.20;;;;;;;18.16;69.72;100795.35;1838758;78;21111;-62
2021/07/15 01:00:46;;;;;;;15.13;6.62;;;;;;;18.13;69.62;100803.94;1838382;78;21057;-62
2021/07/15 01:03:17;;;;;;;17.75;6.80;;;;;;;18.10;69.58;100802.81;1838879;78;21061;-63
2021/07/15 01:05:48;;;;;;;16.90;6.78;;;;;;;18.04;69.82;100803.25;1838607;78;21500;-62
2021/07/15 01:08:17;;;;;;;13.65;6.58;;;;;;;17.99;70.00;100816.03;1838103;77;21092;-62
2021/07/15 01:10:54;;;;;;;17.67;6.47;;;;;;;17.96;70.14;100804.23;1838830;78;21676;-62
2021/07/15 01:13:50;;;;;;;13.58;6.47;;;;;;;17.92;70.10;100803.59;1838540;78;21519;-62
2021/07/15 01:16:28;;;;;;;18.73;6.00;;;;;;;17.90;70.07;100808.67;1837696;78;21537;-62
2021/07/15 01:19:11;;;;;;;13.85;5.33;;;;;;;17.85;70.09;100808.12;1824862;78;21055;-62
2021/07/15 01:21:44;;;;;;;;;;;;;;;17.81;70.36;100810.11;1839460;78;21138;-62
2021/07/15 01:24:24;;;;;;;13.70;5.90;;;;;;;17.78;70.08;100806.80;1838757;78;20151;-62
2021/07/15 01:27:17;;;;;;;16.90;6.33;;;;;;;17.74;69.97;100815.48;1837571;78;21057;-62
2021/07/15 01:30:22;;;;;;;13.22;6.17;;;;;;;17.67;70.41;100803.08;1837852;78;21190;-62
2021/07/15 01:32:56;;;;;;;12.95;6.42;;;;;;;17.62;70.52;100810.52;1838437;77;21601;-62
2021/07/15 01:35:28;;;;;;;19.95;7.25;;;;;;;17.57;70.45;100813.96;1839043;78;21029;-62
2021/07/15 01:37:59;;;;;;;17.23;6.90;;;;;;;17.53;70.74;100821.78;1838767;78;21625;-62
2021/07/15 01:40:33;;;;;;;19.23;6.78;;;;;;;17.47;71.36;100828.38;1838869;78;21582;-62
2021/07/15 01:43:05;;;;;;;14.90;7.22;;;;;;;17.46;71.25;100834.64;1840186;77;21100;-62
2021/07/15 01:45:35;;;;;;;19.67;7.10;;;;;;;17.41;71.83;100842.10;1859582;77;21036;-62
2021/07/15 01:48:04;;;;;;;13.18;6.53;;;;;;;17.40;72.27;100834.22;1858158;77;21531;-62
2021/07/15 01:50:34;;;;;;;20.50;9.33;;;;;;;17.42;71.87;100836.30;1857061;77;21056;-62
2021/07/15 01:53:03;;;;;;;25.02;10.10;;;;;;;17.43;71.60;100836.65;1856870;77;21555;-62
2021/07/15 01:55:32;;;;;;;41.73;16.77;;;;;;;17.41;72.00;100849.21;1856785;77;21515;-62
2021/07/15 01:58:03;;;;;;;30.15;12.00;;;;;;;17.38;72.05;100838.79;1856871;77;21104;-62
2021/07/15 02:00:33;;;;;;;24.43;9.93;;;;;;;17.33;72.41;100834.59;1856921;77;21036;-62
2021/07/15 02:03:04;;;;;;;19.48;8.38;;;;;;;17.28;72.72;100834.07;1857106;77;21126;-62
2021/07/15 02:05:35;;;;;;;16.50;6.75;;;;;;;17.28;72.68;100832.74;1856831;77;21543;-62
2021/07/15 02:08:05;;;;;;;19.75;8.50;;;;;;;17.28;72.62;100828.75;1856759;77;21073;-62
2021/07/15 02:10:35;;;;;;;21.80;8.90;;;;;;;17.33;72.36;100828.43;1856897;77;21076;-62
2021/07/15 02:13:05;;;;;;;16.73;8.18;;;;;;;17.33;72.36;100835.92;1856842;77;21646;-62
2021/07/15 02:15:36;;;;;;;17.02;7.08;;;;;;;17.29;72.39;100821.13;1856950;77;21108;-62
2021/07/15 02:18:07;;;;;;;14.50;6.33;;;;;;;17.29;72.42;100830.44;1856944;77;21068;-62
2021/07/15 02:20:36;;;;;;;22.25;6.60;;;;;;;17.30;72.42;100837.48;1856670;77;21518;-62
2021/07/15 02:23:08;;;;;;;21.27;6.30;;;;;;;17.32;72.44;100836.90;1856880;77;21073;-62
2021/07/15 02:25:39;;;;;;;20.05;6.15;;;;;;;17.35;72.48;100840.70;1856934;77;21052;-62
2021/07/15 02:28:09;;;;;;;18.02;6.53;;;;;;;17.42;72.34;100841.62;1856908;77;21155;-62
2021/07/15 02:30:39;;;;;;;20.32;6.95;;;;;;;17.46;72.26;100844.44;1856855;77;21127;-62
2021/07/15 02:33:13;;;;;;;14.93;6.37;;;;;;;17.50;72.07;100845.94;1856774;77;21253;-62
2021/07/15 02:35:44;;;;;;;28.98;6.53;;;;;;;17.61;72.04;100838.08;1856095;77;21107;-62
2021/07/15 02:38:15;;;;;;;12.43;5.62;;;;;;;17.75;71.94;100839.34;1856821;77;21084;-62
2021/07/15 02:40:45;;;;;;;17.67;5.83;;;;;;;17.90;71.67;100837.97;1856993;77;21056;-62
2021/07/15 02:43:13;;;;;;;16.52;5.60;;;;;;;18.05;71.38;100839.57;1856799;77;21555;-63
2021/07/15 02:45:43;;;;;;;15.93;6.75;;;;;;;18.20;71.17;100844.31;1841384;77;21175;-62
2021/07/15 02:48:17;;;;;;;12.78;5.40;;;;;;;18.35;70.91;100839.73;1838688;77;21108;-63
2021/07/15 02:50:42;;;;;;;18.73;4.60;;;;;;;18.50;70.58;100834.67;1837718;78;21073;-63
2021/07/15 02:53:11;;;;;;;14.73;5.60;;;;;;;18.68;70.19;100829.84;1838227;78;21085;-63
2021/07/15 02:55:42;;;;;;;15.35;6.22;;;;;;;18.82;69.83;100829.36;1838841;77;21525;-63
2021/07/15 02:58:17;;;;;;;17.52;5.22;;;;;;;18.95;69.35;100830.66;1836674;78;21543;-63
2021/07/15 03:00:54;;;;;;;17.98;6.05;;;;;;;19.08;69.06;100825.62;1838433;78;21036;-63
2021/07/15 03:03:51;;;;;;;15.10;6.03;;;;;;;19.21;68.71;100824.23;1838477;78;21130;-62
2021/07/15 03:06:29;;;;;;;17.65;5.97;;;;;;;19.35;68.45;100823.69;1837602;77;21551;-63
2021/07/15 03:09:03;;;;;;;13.40;6.30;;;;;;;19.54;68.11;100828.03;1836742;78;21064;-63
2021/07/15 03:11:34;;;;;;;16.42;6.40;;;;;;;19.72;67.56;100832.47;1838388;77;21056;-63
2021/07/15 03:14:05;;;;;;;20.45;6.30;;;;;;;19.93;67.14;100828.66;1837905;77;21084;-63
2021/07/15 03:16:37;;;;;;;13.65;5.40;;;;;;;20.08;66.76;100828.45;1837823;78;21064;-62
2021/07/15 03:19:07;;;;;;;14.03;6.95;;;;;;;20.25;66.40;100842.67;1838314;78;21619;-62
2021/07/15 03:21:38;;;;;;;19.70;7.20;;;;;;;20.39;66.09;100842.94;1838721;77;21064;-61
2021/07/15 03:24:10;;;;;;;10.85;5.87;;;;;;;20.52;65.39;100845.00;1838244;78;21024;-62
2021/07/15 03:26:39;;;;;;;21.33;6.15;;;;;;;20.55;64.66;100842.59;1837569;78;21096;-62
2021/07/15 03:29:09;;;;;;;19.45;6.65;;;;;;;20.64;64.59;100840.55;1838287;78;21529;-63
2021/07/15 03:31:37;;;;;;;14.25;6.72;;;;;;;20.75;64.45;100843.67;1838888;77;21551;-63
2021/07/15 03:34:06;;;;;;;29.15;7.03;;;;;;;20.90;64.26;100846.97;1838660;78;21021;-63
2021/07/15 03:36:36;;;;;;;19.35;6.83;;;;;;;21.01;63.93;100848.28;1838670;77;21064;-63
2021/07/15 03:39:06;;;;;;;14.65;6.50;;;;;;;21.10;63.71;100838.62;1838429;78;21550;-63
2021/07/15 03:41:37;;;;;;;14.95;6.17;;;;;;;21.21;63.58;100840.80;1838436;78;21045;-63
2021/07/15 03:44:06;;;;;;;16.30;6.30;;;;;;;21.30;63.14;100843.22;1815739;78;21115;-63
2021/07/15 03:46:35;;;;;;;21.00;6.00;;;;;;;21.42;62.85;100845.85;1855980;77;21535;-62
2021/07/15 03:49:06;;;;;;;20.20;7.10;;;;;;;21.52;62.57;100834.25;1856941;77;21555;-62
2021/07/15 03:51:36;;;;;;;16.00;6.28;;;;;;;21.65;62.38;100835.91;1856926;77;21076;-62
2021/07/15 03:54:05;;;;;;;12.68;5.10;;;;;;;21.70;61.76;100835.03;1856941;77;21088;-63
2021/07/15 03:56:35;;;;;;;14.45;5.00;;;;;;;21.77;61.67;100841.08;1856888;77;21144;-63
2021/07/15 03:59:04;;;;;;;18.73;5.53;;;;;;;21.92;61.22;100843.44;1857050;77;21036;-63
2021/07/15 04:01:34;;;;;;;17.80;5.45;;;;;;;22.07;61.11;100839.94;1856902;77;21096;-63
2021/07/15 04:04:05;;;;;;;19.98;5.95;;;;;;;22.24;60.79;100841.16;1857038;77;21060;-63
2021/07/15 04:06:36;;;;;;;18.00;6.58;;;;;;;22.33;60.00;100847.93;1857336;77;21471;-63
2021/07/15 04:09:08;;;;;;;18.90;7.92;;;;;;;22.46;59.97;100842.84;1857018;77;21433;-63
2021/07/15 04:11:40;;;;;;;18.85;7.87;;;;;;;22.64;59.53;100845.25;1856965;77;21143;-63
2021/07/15 04:14:12;;;;;;;18.42;5.90;;;;;;;22.84;58.98;100837.27;1857033;77;21510;-63
2021/07/15 04:16:52;;;;;;;14.33;5.92;;;;;;;23.05;58.35;100850.13;1856900;77;21514;-63
2021/07/15 04:19:22;;;;;;;17.07;6.25;;;;;;;23.23;57.13;100844.09;1856819;77;21040;-63
2021/07/15 04:21:51;;;;;;;12.98;6.62;;;;;;;23.33;56.40;100850.30;1856894;77;21119;-63
2021/07/15 04:24:21;;;;;;;16.62;5.78;;;;;;;23.55;55.96;100842.45;1856916;77;21558;-63
2021/07/15 04:26:51;;;;;;;11.53;5.80;;;;;;;23.83;55.37;100841.27;1857027;77;21122;-63
2021/07/15 04:29:22;;;;;;;14.53;4.87;;;;;;;24.09;54.45;100844.21;1856903;77;21049;-63
2021/07/15 04:32:23;;;;;;;14.73;5.55;;;;;;;24.26;53.78;100850.17;1856917;77;21037;-64
2021/07/15 04:34:52;;;;;;;18.05;5.47;;;;;;;24.49;54.14;100848.45;1857013;77;21044;-63
2021/07/15 04:37:22;;;;;;;14.28;4.70;;;;;;;24.89;53.62;100849.16;1856919;77;21479;-68
2021/07/15 04:39:53;;;;;;;17.85;6.55;;;;;;;25.18;52.72;100855.72;1856921;77;21555;-61
2021/07/15 04:42:23;;;;;;;20.20;6.12;;;;;;;25.54;52.21;100857.09;1855720;77;21120;-62
2021/07/15 04:44:54;;;;;;;18.70;7.15;;;;;;;25.88;51.59;100848.30;1856988;77;21056;-61
2021/07/15 04:47:24;;;;;;;21.30;6.78;;;;;;;26.17;51.10;100852.91;1839928;77;21196;-61
2021/07/15 04:49:53;;;;;;;15.13;5.65;;;;;;;26.49;50.59;100854.09;1838679;77;21551;-61
2021/07/15 04:52:23;;;;;;;45.48;18.02;;;;;;;26.84;50.05;100856.81;1838954;77;21097;-61
2021/07/15 04:54:52;;;;;;;26.48;9.13;;;;;;;27.03;49.51;100851.63;1838701;77;21515;-61
2021/07/15 04:57:21;;;;;;;25.95;9.13;;;;;;;27.26;48.64;100849.16;1839382;77;21592;-60
2021/07/15 04:59:50;;;;;;;17.15;8.43;;;;;;;27.47;48.02;100854.10;1837997;78;21547;-61
2021/07/15 05:02:22;;;;;;;22.48;8.33;;;;;;;27.70;47.87;100844.31;1839077;77;21108;-61
2021/07/15 05:04:51;;;;;;;22.87;7.20;;;;;;;27.99;47.61;100852.42;1837800;78;21625;-61
2021/07/15 05:07:20;;;;;;;22.50;6.95;;;;;;;28.29;47.10;100848.63;1838370;78;21096;-61
2021/07/15 05:09:48;;;;;;;16.02;6.70;;;;;;;28.49;46.17;100849.92;1839242;77;21142;-61
2021/07/15 05:12:17;;;;;;;25.60;6.42;;;;;;;28.45;45.50;100847.75;1836848;78;21093;-61
2021/07/15 05:14:46;;;;;;;22.48;5.33;;;;;;;28.56;45.74;100846.05;1837024;78;21134;-61
2021/07/15 05:17:14;;;;;;;16.90;5.03;;;;;;;28.74;44.53;100847.16;1839896;77;21146;-61
2021/07/15 05:19:43;;;;;;;22.62;5.17;;;;;;;28.90;44.30;100847.58;1838647;77;21536;-61
2021/07/15 05:22:12;;;;;;;19.65;5.22;;;;;;;29.17;43.68;100843.56;1838061;78;21093;-61
2021/07/15 05:24:41;;;;;;;20.72;4.65;;;;;;;29.35;42.52;100841.92;1838234;78;21179;-61
2021/07/15 05:27:10;;;;;;;16.30;4.45;;;;;;;29.58;42.54;100833.75;1838092;78;21131;-61
2021/07/15 05:29:39;;;;;;;20.17;5.17;;;;;;;29.91;41.75;100838.92;1838920;77;21531;-61
2021/07/15 05:32:08;;;;;;;18.90;4.65;;;;;;;30.17;40.96;100843.91;1838323;78;21504;-61
2021/07/15 05:34:38;;;;;;;17.85;4.85;;;;;;;30.34;40.40;100839.20;1837840;78;21131;-61
2021/07/15 05:37:07;;;;;;;22.58;4.92;;;;;;;30.59;40.64;100844.33;1837813;78;21546;-61
2021/07/15 05:39:39;;;;;;;15.65;4.45;;;;;;;30.90;40.82;100835.09;1837678;78;21578;-61
2021/07/15 05:42:08;;;;;;;17.65;4.20;;;;;;;31.18;39.89;100840.66;1838189;78;21127;-61
2021/07/15 05:44:36;;;;;;;19.10;4.87;;;;;;;31.45;38.84;100833.61;1838549;77;21069;-61
2021/07/15 05:47:07;;;;;;;19.85;4.40;;;;;;;31.61;38.66;100822.98;1839293;76;21109;-61
2021/07/15 05:49:36;;;;;;;21.80;4.50;;;;;;;31.74;37.73;100824.97;1838541;78;21123;-61
2021/07/15 05:52:08;;;;;;;14.15;4.15;;;;;;;31.88;37.15;100819.95;1838470;78;21577;-61
2021/07/15 05:54:37;;;;;;;18.20;4.25;;;;;;;32.11;37.06;100815.66;1838686;78;21049;-61
2021/07/15 05:57:06;;;;;;;13.70;3.58;;;;;;;32.30;36.39;100815.44;1838557;78;21100;-61
2021/07/15 05:59:35;;;;;;;18.90;4.70;;;;;;;32.40;35.82;100816.95;1838536;78;21566;-61
2021/07/15 06:02:04;;;;;;;18.80;4.78;;;;;;;32.56;35.89;100811.16;1838752;78;21033;-61
2021/07/15 06:04:33;;;;;;;15.75;4.47;;;;;;;32.70;35.54;100814.80;1838439;78;21065;-61
2021/07/15 06:07:01;;;;;;;15.68;4.20;;;;;;;32.79;35.25;100807.28;1838529;78;21127;-61
2021/07/15 06:09:30;;;;;;;15.43;3.62;;;;;;;32.96;34.90;100801.80;1838543;78;21065;-61
2021/07/15 06:11:59;;;;;;;13.25;4.10;;;;;;;33.13;35.30;100801.45;1814167;78;21036;-61
2021/07/15 06:14:29;;;;;;;10.90;3.75;;;;;;;33.37;34.75;100804.92;1838551;78;21088;-61
2021/07/15 06:16:58;;;;;;;17.20;4.00;;;;;;;33.29;33.79;100805.11;1838432;78;21057;-61
2021/07/15 06:19:27;;;;;;;10.03;3.47;;;;;;;33.20;34.30;100799.54;1838532;78;21077;-61
2021/07/15 06:21:56;;;;;;;7.53;3.27;;;;;;;33.49;34.37;100807.86;1838492;78;21085;-61
2021/07/15 06:24:24;;;;;;;11.40;3.40;;;;;;;33.58;33.83;100807.13;1838514;78;21085;-61
2021/07/15 06:26:53;;;;;;;9.90;3.67;;;;;;;33.61;34.16;100808.09;1838537;78;21080;-61
2021/07/15 06:29:22;;;;;;;16.95;4.28;;;;;;;33.67;33.60;100807.80;1838642;78;21178;-62
2021/07/15 06:31:51;;;;;;;15.63;4.12;;;;;;;33.62;33.48;100795.56;1838521;78;21080;-61
2021/07/15 06:34:20;;;;;;;13.83;3.50;;;;;;;33.59;33.75;100806.09;1838535;78;21052;-61
2021/07/15 06:36:49;;;;;;;13.55;3.55;;;;;;;33.51;33.58;100804.92;1824847;78;21047;-61
2021/07/15 06:39:18;;;;;;;13.25;4.35;;;;;;;33.35;32.91;100804.80;1824413;78;21123;-61
2021/07/15 06:41:46;;;;;;;8.43;3.72;;;;;;;33.43;33.11;100810.07;1838392;77;21135;-62
2021/07/15 06:44:15;;;;;;;15.83;4.58;;;;;;;33.43;32.92;100810.07;1838440;78;21100;-61
2021/07/15 06:46:44;;;;;;;14.30;3.95;;;;;;;33.40;32.85;100807.25;1838491;78;21064;-61
2021/07/15 06:49:12;;;;;;;13.90;4.17;;;;;;;33.40;32.70;100800.92;1838450;77;21064;-61
2021/07/15 06:51:41;;;;;;;14.23;3.80;;;;;;;33.66;32.92;100800.11;1838566;78;21064;-61
2021/07/15 06:54:10;;;;;;;13.43;3.70;;;;;;;33.84;32.54;100805.77;1838586;78;21069;-61
2021/07/15 06:56:39;;;;;;;15.90;4.10;;;;;;;33.99;32.56;100804.70;1838494;78;21029;-61
2021/07/15 06:59:07;;;;;;;11.80;3.67;;;;;;;34.20;32.46;100797.64;1838587;78;21155;-61
2021/07/15 07:01:36;;;;;;;21.55;4.55;;;;;;;34.42;31.85;100805.03;1838597;78;21166;-61
2021/07/15 07:04:05;;;;;;;13.40;4.15;;;;;;;34.35;31.97;100802.02;1838570;78;21053;-61
2021/07/15 07:06:34;;;;;;;10.08;3.75;;;;;;;34.43;31.98;100799.03;1838684;78;21062;-61
2021/07/15 07:09:03;;;;;;;16.75;4.55;;;;;;;34.50;32.41;100805.85;1838473;78;21555;-61
2021/07/15 07:11:32;;;;;;;19.82;4.67;;;;;;;34.55;32.53;100801.41;1838613;78;21057;-60
2021/07/15 07:14:01;;;;;;;12.78;3.95;;;;;;;34.80;32.46;100803.41;1838713;78;21202;-61
2021/07/15 07:16:30;;;;;;;18.60;3.90;;;;;;;35.07;32.40;100800.53;1838601;78;21053;-60
2021/07/15 07:18:59;;;;;;;16.57;3.30;;;;;;;35.07;32.40;100800.53;1838607;78;21476;-60
2021/07/15 07:21:29;;;;;;;16.27;3.37;;;;;;;35.53;32.57;100798.83;1838669;78;21142;-60
2021/07/15 07:23:57;;;;;;;12.18;4.45;;;;;;;35.53;32.57;100798.83;1838555;78;21614;-60
2021/07/15 07:26:26;;;;;;;12.35;4.15;;;;;;;35.79;32.28;100805.70;1838816;78;21053;-60
2021/07/15 07:28:55;;;;;;;13.70;4.10;;;;;;;35.85;31.91;100804.25;1838567;78;21053;-60
2021/07/15 07:31:23;;;;;;;11.35;3.70;;;;;;;35.82;31.67;100805.23;1838608;78;21029;-60
2021/07/15 07:33:52;;;;;;;12.10;3.58;;;;;;;35.91;31.32;100807.98;1838556;78;21065;-60
2021/07/15 07:36:21;;;;;;;17.12;4.03;;;;;;;35.85;30.98;100807.53;1838537;78;21213;-61
2021/07/15 07:38:50;;;;;;;15.28;3.35;;;;;;;35.69;30.59;100799.34;1813973;78;21088;-60
2021/07/15 07:41:19;;;;;;;13.30;3.70;;;;;;;35.74;30.73;100808.56;1838648;78;21088;-61
2021/07/15 07:43:48;;;;;;;11.40;3.62;;;;;;;35.95;30.82;100799.64;1838565;78;21060;-60
2021/07/15 07:46:17;;;;;;;8.98;3.50;;;;;;;36.14;31.07;100799.94;1838597;78;21538;-60
2021/07/15 07:48:46;;;;;;;14.80;2.90;;;;;;;36.41;30.45;100794.70;1837412;78;21096;-60
2021/07/15 07:51:15;;;;;;;19.12;3.60;;;;;;;36.35;29.93;100785.50;1838545;78;21093;-60
2021/07/15 07:53:45;;;;;;;15.28;3.95;;;;;;;36.42;30.25;100790.91;1838546;78;21155;-60
2021/07/15 07:56:16;;;;;;;13.35;4.30;;;;;;;36.74;30.39;100786.07;1838585;78;21060;-60
2021/07/15 07:58:45;;;;;;;8.75;3.12;;;;;;;36.87;29.83;100794.13;1838567;78;21068;-60
2021/07/15 08:01:13;;;;;;;12.40;3.80;;;;;;;36.95;30.07;100793.50;1838478;78;21496;-60
2021/07/15 08:03:45;;;;;;;14.38;3.92;;;;;;;36.92;29.45;100793.96;1838468;78;21210;-60
2021/07/15 08:06:14;;;;;;;16.95;3.35;;;;;;;37.31;29.71;100788.95;1838744;78;21167;-61
2021/07/15 08:08:45;;;;;;;20.10;4.10;;;;;;;37.53;28.55;100785.92;1838527;78;21072;-61
2021/07/15 08:11:15;;;;;;;7.22;2.92;;;;;;;37.75;28.46;100788.12;1838581;78;21052;-61
2021/07/15 08:13:44;;;;;;;10.45;3.45;;;;;;;37.68;27.61;100784.66;1838495;78;21044;-61
2021/07/15 08:16:14;;;;;;;15.08;3.42;;;;;;;37.48;27.42;100784.45;1838570;78;21147;-60
2021/07/15 08:18:43;;;;;;;10.90;3.65;;;;;;;37.51;27.96;100775.72;1838569;78;21077;-60
2021/07/15 08:21:11;;;;;;;12.25;2.83;;;;;;;37.83;28.05;100774.86;1850377;77;21558;-61
2021/07/15 08:23:40;;;;;;;12.75;3.50;;;;;;;38.09;27.25;100773.22;1850553;77;21141;-60
2021/07/15 08:26:11;;;;;;;12.35;3.80;;;;;;;38.20;27.65;100772.36;1850489;77;21562;-62
2021/07/15 08:28:40;;;;;;;14.25;3.35;;;;;;;38.37;27.26;100771.08;1850394;77;21150;-61
2021/07/15 08:31:09;;;;;;;9.23;3.15;;;;;;;38.40;27.14;100763.18;1844324;77;21061;-61
2021/07/15 08:33:38;;;;;;;11.75;2.80;;;;;;;38.43;26.98;100762.67;1838670;78;21072;-60
2021/07/15 08:36:10;;;;;;;5.03;2.55;;;;;;;38.28;25.71;100764.30;1838636;78;21072;-60
2021/07/15 08:38:41;;;;;;;13.15;3.02;;;;;;;38.13;25.84;100765.64;1815392;78;21523;-61
2021/07/15 08:41:09;;;;;;;6.58;2.92;;;;;;;38.13;25.76;100762.06;1838760;78;21056;-61
2021/07/15 08:43:39;;;;;;;10.90;3.33;;;;;;;38.17;25.33;100763.24;1838650;78;21135;-61
2021/07/15 08:46:08;;;;;;;9.40;3.35;;;;;;;38.13;25.39;100751.90;1838735;77;21138;-61
2021/07/15 08:48:40;;;;;;;10.72;3.20;;;;;;;38.00;25.18;100748.84;1840160;77;21061;-61
2021/07/15 08:51:10;;;;;;;6.50;2.70;;;;;;;37.97;25.20;100753.44;1856811;77;21085;-63
2021/07/15 08:53:39;;;;;;;11.28;2.37;;;;;;;37.88;25.39;100749.39;1857048;77;21064;-60
2021/07/15 08:58:55;;;;;;;13.10;2.35;;;;;;;37.92;23.26;100750.58;1856914;77;21064;-60
2021/07/15 09:01:25;;;;;;;3.95;1.90;;;;;;;37.94;21.95;100742.09;1856880;77;21059;-61
2021/07/15 09:03:54;;;;;;;7.78;2.12;;;;;;;37.79;21.19;100742.59;1856902;77;21099;-61
2021/07/15 09:06:23;;;;;;;8.38;2.33;;;;;;;37.80;21.30;100736.04;1857026;77;21180;-61
2021/07/15 09:08:55;;;;;;;11.88;2.87;;;;;;;37.90;21.41;100730.75;1856846;77;21123;-60
2021/07/15 09:11:25;;;;;;;7.50;2.35;;;;;;;37.86;21.05;100734.52;1856927;77;21138;-61
2021/07/15 09:13:53;;;;;;;9.63;2.52;;;;;;;37.85;21.09;100737.53;1856940;77;21664;-60
2021/07/15 09:16:23;;;;;;;16.62;2.83;;;;;;;37.68;20.50;100730.54;1822435;77;21063;-60
2021/07/15 09:19:00;;;;;;;6.08;1.90;;;;;;;37.56;20.96;100718.17;1856894;77;21155;-61
2021/07/15 09:21:32;;;;;;;11.33;2.27;;;;;;;37.78;21.40;100732.70;1854587;77;21076;-60
2021/07/15 09:24:04;;;;;;;4.28;1.87;;;;;;;37.77;20.91;100729.09;1856806;77;21072;-61
2021/07/15 09:26:33;;;;;;;6.40;2.10;;;;;;;37.90;20.95;100723.88;1857071;77;21153;-60
2021/07/15 09:29:13;;;;;;;3.92;1.82;;;;;;;38.02;20.98;100721.95;1856855;77;21213;-61
2021/07/15 09:31:59;;;;;;;4.75;1.67;;;;;;;37.98;20.40;100724.89;1856410;77;21134;-60
2021/07/15 09:34:29;;;;;;;4.87;1.67;;;;;;;37.80;20.37;100722.30;1857084;77;21134;-61
2021/07/15 09:36:59;;;;;;;;;;;;;;;37.76;20.07;100721.13;1859454;77;21550;-63
2021/07/15 09:39:29;;;;;;;10.93;1.90;;;;;;;37.85;20.64;100716.92;1856900;77;20151;-61
2021/07/15 09:42:14;;;;;;;8.45;1.50;;;;;;;37.75;20.67;100718.06;1856918;77;21109;-61
2021/07/15 09:44:43;;;;;;;4.92;1.67;;;;;;;37.72;20.21;100713.04;1856582;77;21194;-61
2021/07/15 09:47:13;;;;;;;6.85;1.95;;;;;;;37.65;20.63;100709.89;1856758;77;21052;-61
2021/07/15 09:49:42;;;;;;;11.53;3.50;;;;;;;37.60;21.08;100709.73;1847850;77;21106;-61
2021/07/15 09:52:13;;;;;;;4.62;1.62;;;;;;;37.61;20.79;100708.67;1833933;78;21085;-60
2021/07/15 09:54:42;;;;;;;7.92;1.67;;;;;;;37.51;19.92;100704.31;1820091;78;21533;-60
2021/07/15 09:57:13;;;;;;;10.18;2.00;;;;;;;37.48;20.12;100708.94;1817316;77;21079;-60
2021/07/15 09:59:51;;;;;;;8.55;1.77;;;;;;;37.47;20.29;100707.25;1814984;78;21153;-60
2021/07/15 10:02:30;;;;;;;6.17;1.70;;;;;;;37.50;20.29;100710.04;1816500;78;21054;-61
2021/07/15 10:05:00;;;;;;;8.35;1.80;;;;;;;37.32;19.91;100708.27;1816949;78;21027;-61
2021/07/15 10:07:29;;;;;;;6.55;1.50;;;;;;;37.19;20.46;100706.05;1817317;77;21567;-61
2021/07/15 10:10:20;;;;;;;5.87;1.35;;;;;;;37.24;19.93;100705.32;1819811;77;21485;-60
2021/07/15 10:12:48;;;;;;;5.03;1.60;;;;;;;37.19;19.50;100706.59;1817587;77;21682;-61
2021/07/15 10:15:18;;;;;;;5.55;1.60;;;;;;;36.95;19.02;100706.53;1790498;78;21092;-60
2021/07/15 10:17:53;;;;;;;7.45;1.60;;;;;;;36.82;18.97;100708.94;1792670;78;21129;-60
2021/07/15 10:20:20;;;;;;;2.17;1.15;;;;;;;36.66;18.61;100705.46;1816611;78;21055;-61
2021/07/15 10:22:56;;;;;;;3.67;1.10;;;;;;;36.54;18.57;100712.30;1816493;78;21079;-60
2021/07/15 10:25:24;;;;;;;4.87;1.50;;;;;;;36.39;18.41;100711.34;1816462;79;21066;-61
2021/07/15 10:27:56;;;;;;;6.95;1.45;;;;;;;36.28;19.17;100699.77;1818818;77;21059;-60
2021/07/15 10:30:25;;;;;;;6.60;2.58;;;;;;;36.32;19.45;100706.48;1816921;78;21051;-60
2021/07/15 10:32:56;;;;;;;10.13;2.10;;;;;;;36.29;18.77;100700.91;1816530;77;21588;-60
2021/07/15 10:35:26;;;;;;;6.72;1.90;;;;;;;36.24;19.38;100704.04;1816553;78;21146;-61
2021/07/15 10:37:58;;;;;;;6.50;2.30;;;;;;;36.32;19.69;100706.48;1816875;78;21149;-60
2021/07/15 10:40:28;;;;;;;5.08;1.60;;;;;;;36.36;19.75;100711.80;1816330;79;21055;-60
2021/07/15 10:42:57;;;;;;;8.93;1.40;;;;;;;36.35;19.37;100706.00;1816825;78;21051;-60
2021/07/15 10:45:26;;;;;;;6.72;1.50;;;;;;;36.24;19.04;100705.41;1816549;78;21091;-61
2021/07/15 10:47:57;;;;;;;4.58;1.45;;;;;;;36.09;19.09;100698.39;1816428;79;21564;-61
2021/07/15 10:50:25;;;;;;;3.92;1.70;;;;;;;36.00;19.19;100697.03;1822862;77;21523;-60
2021/07/15 10:52:55;;;;;;;7.30;1.50;;;;;;;35.91;19.42;100690.19;1837836;78;21045;-61
2021/07/15 10:55:26;;;;;;;9.73;2.10;;;;;;;35.78;19.68;100687.61;1838575;77;21608;-60
2021/07/15 10:57:55;;;;;;;6.33;1.43;;;;;;;35.62;19.94;100691.23;1814329;78;21066;-61
2021/07/15 11:00:28;;;;;;;3.05;1.37;;;;;;;35.46;20.01;100693.19;1839750;77;21086;-61
2021/07/15 11:03:18;;;;;;;8.85;1.65;;;;;;;35.30;20.03;100684.50;1838454;78;21118;-60
2021/07/15 11:05:55;;;;;;;8.08;1.50;;;;;;;35.06;20.32;100663.41;1838035;78;21045;-61
2021/07/15 11:08:46;;;;;;;3.30;1.70;;;;;;;35.06;20.32;100663.41;1838207;77;21101;-60
2021/07/15 11:11:15;;;;;;;4.22;1.27;;;;;;;34.88;20.65;100666.92;1838827;77;21496;-60
2021/07/15 11:13:44;;;;;;;5.75;1.50;;;;;;;34.85;21.00;100694.20;1838489;78;21178;-61
2021/07/15 11:16:13;;;;;;;7.50;2.60;;;;;;;34.78;21.21;100682.46;1814943;78;21159;-60
2021/07/15 11:18:51;;;;;;;7.15;2.35;;;;;;;34.74;21.53;100678.50;1838361;78;21060;-61
2021/07/15 11:21:32;;;;;;;6.17;1.77;;;;;;;34.78;21.66;100679.73;1836707;78;21088;-60
2021/07/15 11:24:13;;;;;;;6.60;1.65;;;;;;;34.71;21.55;100665.27;1838525;78;21488;-61
2021/07/15 11:26:43;;;;;;;6.62;1.77;;;;;;;34.71;21.55;100665.27;1838471;78;21118;-60
2021/07/15 11:29:13;;;;;;;7.78;1.67;;;;;;;34.76;21.75;100670.38;1838412;78;21486;-59
2021/07/15 11:31:47;;;;;;;5.95;1.80;;;;;;;34.79;22.31;100674.05;1815220;78;21052;-61
2021/07/15 11:34:36;;;;;;;11.83;1.87;;;;;;;34.82;22.11;100671.38;1838324;78;21053;-60
2021/07/15 11:37:33;;;;;;;3.52;1.65;;;;;;;34.78;21.95;100674.26;1838537;78;21080;-60
2021/07/15 11:40:06;;;;;;;7.05;2.05;;;;;;;34.67;22.76;100661.27;1839103;77;21045;-61